createdAt,value
2023-06-16T00:00:41.520Z,25.78
2023-06-16T00:01:41.548Z,25.78
2023-06-16T00:02:41.526Z,25.77
2023-06-16T00:03:41.613Z,25.77
2023-06-16T00:04:41.543Z,25.77
2023-06-16T00:05:41.548Z,25.76
2023-06-16T00:06:41.573Z,25.76
2023-06-16T00:07:41.612Z,25.76
2023-06-16T00:08:41.618Z,25.75
2023-06-16T00:09:41.587Z,25.76
2023-06-16T00:10:41.629Z,25.74
2023-06-16T00:11:41.599Z,25.75
2023-06-16T00:12:41.756Z,25.74
2023-06-16T00:13:41.595Z,25.74
2023-06-16T00:14:41.639Z,25.74
2023-06-16T00:15:41.607Z,25.74
2023-06-16T00:16:41.632Z,25.73
2023-06-16T00:17:41.658Z,25.73
2023-06-16T00:18:41.605Z,25.73
2023-06-16T00:19:41.652Z,25.73
2023-06-16T00:20:41.639Z,25.73
2023-06-16T00:21:41.643Z,25.72
2023-06-16T00:22:41.653Z,25.72
2023-06-16T00:23:41.661Z,25.72
2023-06-16T00:24:41.666Z,25.72
2023-06-16T00:25:41.668Z,25.71
2023-06-16T00:26:41.675Z,25.71
2023-06-16T00:27:41.686Z,25.71
2023-06-16T00:28:41.691Z,25.70
2023-06-16T00:29:41.663Z,25.70
2023-06-16T00:30:41.703Z,25.70
2023-06-16T00:31:41.734Z,25.69
2023-06-16T00:32:41.880Z,25.69
2023-06-16T00:33:41.687Z,25.69
2023-06-16T00:34:41.683Z,25.69
2023-06-16T00:35:41.688Z,25.68
2023-06-16T00:36:41.696Z,25.69
2023-06-16T00:37:41.778Z,25.68
2023-06-16T00:38:41.683Z,25.68
2023-06-16T00:39:41.660Z,25.68
2023-06-16T00:40:41.665Z,25.67
2023-06-16T00:41:41.668Z,25.67
2023-06-16T00:42:41.676Z,25.67
2023-06-16T00:43:41.674Z,25.67
2023-06-16T00:44:41.691Z,25.66
2023-06-16T00:45:41.666Z,25.67
2023-06-16T00:46:41.765Z,25.66
2023-06-16T00:47:41.670Z,25.66
2023-06-16T00:48:41.686Z,25.66
2023-06-16T00:49:41.685Z,25.66
2023-06-16T00:50:41.683Z,25.66
2023-06-16T00:51:41.705Z,25.65
2023-06-16T00:52:41.686Z,25.65
2023-06-16T00:53:41.682Z,25.64
2023-06-16T00:54:41.673Z,25.64
2023-06-16T00:55:41.683Z,25.64
2023-06-16T00:56:41.697Z,25.64
2023-06-16T00:57:41.699Z,25.63
2023-06-16T00:58:41.707Z,25.64
2023-06-16T00:59:41.690Z,25.63
2023-06-16T01:00:41.688Z,25.63
2023-06-16T01:01:41.736Z,25.63
2023-06-16T01:02:41.779Z,25.63
2023-06-16T01:03:41.685Z,25.63
2023-06-16T01:04:41.700Z,25.62
2023-06-16T01:05:41.716Z,25.62
2023-06-16T01:06:41.701Z,25.63
2023-06-16T01:07:41.796Z,25.62
2023-06-16T01:08:41.732Z,25.62
2023-06-16T01:09:41.735Z,25.62
2023-06-16T01:10:41.733Z,25.61
2023-06-16T01:11:41.738Z,25.61
2023-06-16T01:12:41.731Z,25.61
2023-06-16T01:13:41.713Z,25.60
2023-06-16T01:14:41.754Z,25.60
2023-06-16T01:15:41.756Z,25.60
2023-06-16T01:16:41.766Z,25.60
2023-06-16T01:17:41.792Z,25.60
2023-06-16T01:18:41.788Z,25.60
2023-06-16T01:19:41.793Z,25.59
2023-06-16T01:20:41.799Z,25.59
2023-06-16T01:21:41.810Z,25.59
2023-06-16T01:22:41.765Z,25.58
2023-06-16T01:23:41.742Z,25.59
2023-06-16T01:24:41.758Z,25.59
2023-06-16T01:25:41.719Z,25.58
2023-06-16T01:26:41.774Z,25.59
2023-06-16T01:27:41.733Z,25.58
2023-06-16T01:28:41.791Z,25.58
2023-06-16T01:29:41.757Z,25.58
2023-06-16T01:30:41.763Z,25.57
2023-06-16T01:31:41.773Z,25.57
2023-06-16T01:32:41.789Z,25.57
2023-06-16T01:33:41.812Z,25.57
2023-06-16T01:34:41.784Z,25.56
2023-06-16T01:35:41.788Z,25.56
2023-06-16T01:36:41.797Z,25.56
2023-06-16T01:37:41.770Z,25.56
2023-06-16T01:38:41.787Z,25.56
2023-06-16T01:39:41.899Z,25.56
2023-06-16T01:40:41.842Z,25.55
2023-06-16T01:41:41.881Z,25.55
2023-06-16T01:42:41.809Z,25.54
2023-06-16T01:43:41.809Z,25.55
2023-06-16T01:44:41.820Z,25.54
2023-06-16T01:45:41.820Z,25.55
2023-06-16T01:46:41.896Z,25.54
2023-06-16T01:47:41.891Z,25.54
2023-06-16T01:48:41.849Z,25.54
2023-06-16T01:49:41.825Z,25.54
2023-06-16T01:50:41.819Z,25.53
2023-06-16T01:51:41.873Z,25.52
2023-06-16T01:52:41.874Z,25.53
2023-06-16T01:53:41.872Z,25.53
2023-06-16T01:54:41.891Z,25.53
2023-06-16T01:55:41.898Z,25.53
2023-06-16T01:56:41.966Z,25.53
2023-06-16T01:57:41.914Z,25.52
2023-06-16T01:58:41.885Z,25.52
2023-06-16T01:59:41.930Z,25.51
2023-06-16T02:00:41.922Z,25.51
2023-06-16T02:01:41.891Z,25.51
2023-06-16T02:02:42.016Z,25.52
2023-06-16T02:03:41.995Z,25.51
2023-06-16T02:04:41.955Z,25.51
2023-06-16T02:05:41.928Z,25.50
2023-06-16T02:06:41.973Z,25.50
2023-06-16T02:07:41.980Z,25.51
2023-06-16T02:08:42.023Z,25.50
2023-06-16T02:09:42.003Z,25.51
2023-06-16T02:10:42.032Z,25.51
2023-06-16T02:11:42.026Z,25.50
2023-06-16T02:12:42.003Z,25.50
2023-06-16T02:13:42.164Z,25.50
2023-06-16T02:14:42.037Z,25.50
2023-06-16T02:15:42.095Z,25.49
2023-06-16T02:16:42.087Z,25.49
2023-06-16T02:17:42.107Z,25.49
2023-06-16T02:18:42.090Z,25.48
2023-06-16T02:19:42.172Z,25.49
2023-06-16T02:20:42.116Z,25.48
2023-06-16T02:21:42.129Z,25.48
2023-06-16T02:22:42.106Z,25.48
2023-06-16T02:23:42.113Z,25.48
2023-06-16T02:24:42.148Z,25.47
2023-06-16T02:25:42.145Z,25.48
2023-06-16T02:26:42.214Z,25.48
2023-06-16T02:27:42.223Z,25.47
2023-06-16T02:28:42.193Z,25.48
2023-06-16T02:29:42.234Z,25.47
2023-06-16T02:30:42.225Z,25.47
2023-06-16T02:31:42.397Z,25.47
2023-06-16T02:32:49.704Z,25.47
2023-06-16T02:33:43.240Z,25.47
2023-06-16T02:34:42.222Z,25.47
2023-06-16T02:35:42.223Z,25.46
2023-06-16T02:36:42.222Z,25.46
2023-06-16T02:37:42.217Z,25.46
2023-06-16T02:38:42.192Z,25.46
2023-06-16T02:39:42.204Z,25.46
2023-06-16T02:40:42.193Z,25.46
2023-06-16T02:41:42.171Z,25.45
2023-06-16T02:42:42.190Z,25.46
2023-06-16T02:43:42.159Z,25.46
2023-06-16T02:44:42.156Z,25.46
2023-06-16T02:45:42.151Z,25.46
2023-06-16T02:46:42.195Z,25.45
2023-06-16T02:47:42.133Z,25.45
2023-06-16T02:48:42.120Z,25.45
2023-06-16T02:49:42.130Z,25.44
2023-06-16T02:50:42.109Z,25.44
2023-06-16T02:51:42.107Z,25.44
2023-06-16T02:52:42.134Z,25.45
2023-06-16T02:53:42.099Z,25.44
2023-06-16T02:54:42.085Z,25.44
2023-06-16T02:55:42.109Z,25.44
2023-06-16T02:56:42.073Z,25.44
2023-06-16T02:57:42.088Z,25.44
2023-06-16T02:58:42.065Z,25.44
2023-06-16T02:59:42.064Z,25.43
2023-06-16T03:00:42.123Z,25.43
2023-06-16T03:01:42.075Z,25.43
2023-06-16T03:02:42.124Z,25.43
2023-06-16T03:03:42.143Z,25.43
2023-06-16T03:04:42.133Z,25.43
2023-06-16T03:05:42.137Z,25.43
2023-06-16T03:06:42.230Z,25.42
2023-06-16T03:07:42.136Z,25.42
2023-06-16T03:08:42.185Z,25.43
2023-06-16T03:09:42.225Z,25.42
2023-06-16T03:10:42.221Z,25.42
2023-06-16T03:11:42.378Z,25.41
2023-06-16T03:12:42.258Z,25.41
2023-06-16T03:13:42.264Z,25.42
2023-06-16T03:14:42.265Z,25.42
2023-06-16T03:15:42.348Z,25.41
2023-06-16T03:16:42.368Z,25.41
2023-06-16T03:17:42.371Z,25.41
2023-06-16T03:18:42.329Z,25.41
2023-06-16T03:19:42.340Z,25.41
2023-06-16T03:20:42.347Z,25.41
2023-06-16T03:21:42.341Z,25.41
2023-06-16T03:22:42.429Z,25.41
2023-06-16T03:23:42.381Z,25.41
2023-06-16T03:24:42.442Z,25.41
2023-06-16T03:25:42.467Z,25.40
2023-06-16T03:26:42.485Z,25.40
2023-06-16T03:27:42.532Z,25.40
2023-06-16T03:28:42.572Z,25.40
2023-06-16T03:29:42.526Z,25.40
2023-06-16T03:30:42.563Z,25.40
2023-06-16T03:31:42.602Z,25.40
2023-06-16T03:32:42.616Z,25.40
2023-06-16T03:33:42.619Z,25.40
2023-06-16T03:34:42.640Z,25.40
2023-06-16T03:35:42.652Z,25.40
2023-06-16T03:36:42.653Z,25.40
2023-06-16T03:37:42.666Z,25.39
2023-06-16T03:38:42.740Z,25.39
2023-06-16T03:39:42.810Z,25.40
2023-06-16T03:40:42.768Z,25.40
2023-06-16T03:41:42.778Z,25.39
2023-06-16T03:42:42.804Z,25.40
2023-06-16T03:43:42.816Z,25.40
2023-06-16T03:44:42.838Z,25.40
2023-06-16T03:45:42.928Z,25.40
2023-06-16T03:46:42.892Z,25.40
2023-06-16T03:47:42.973Z,25.40
2023-06-16T03:48:42.932Z,25.40
2023-06-16T03:49:42.916Z,25.40
2023-06-16T03:50:42.949Z,25.40
2023-06-16T03:51:42.998Z,25.40
2023-06-16T03:52:43.003Z,25.40
2023-06-16T03:53:43.010Z,25.40
2023-06-16T03:54:43.088Z,25.40
2023-06-16T03:55:43.051Z,25.40
2023-06-16T03:56:43.104Z,25.40
2023-06-16T03:57:43.113Z,25.40
2023-06-16T03:58:43.109Z,25.40
2023-06-16T03:59:43.165Z,25.40
2023-06-16T04:00:43.161Z,25.41
2023-06-16T04:01:43.188Z,25.41
2023-06-16T04:02:43.254Z,25.40
2023-06-16T04:03:43.299Z,25.40
2023-06-16T04:04:43.251Z,25.40
2023-06-16T04:05:43.273Z,25.39
2023-06-16T04:06:43.300Z,25.37
2023-06-16T04:07:43.321Z,25.36
2023-06-16T04:08:43.338Z,25.35
2023-06-16T04:09:43.438Z,25.35
2023-06-16T04:10:43.484Z,25.36
2023-06-16T04:11:43.457Z,25.36
2023-06-16T04:12:43.483Z,25.34
2023-06-16T04:13:43.529Z,25.34
2023-06-16T04:14:43.569Z,25.34
2023-06-16T04:15:43.597Z,25.34
2023-06-16T04:16:43.805Z,25.33
2023-06-16T04:17:43.766Z,25.32
2023-06-16T04:18:43.686Z,25.31
2023-06-16T04:19:43.748Z,25.32
2023-06-16T04:20:43.770Z,25.32
2023-06-16T04:21:43.851Z,25.31
2023-06-16T04:22:43.854Z,25.31
2023-06-16T04:23:43.902Z,25.29
2023-06-16T04:24:43.905Z,25.30
2023-06-16T04:25:43.981Z,25.29
2023-06-16T04:26:43.993Z,25.27
2023-06-16T04:27:44.029Z,25.27
2023-06-16T04:28:44.054Z,25.26
2023-06-16T04:29:44.103Z,25.25
2023-06-16T04:30:44.289Z,25.24
2023-06-16T04:31:44.158Z,25.23
2023-06-16T04:32:44.293Z,25.23
2023-06-16T04:33:44.249Z,25.23
2023-06-16T04:34:44.382Z,25.24
2023-06-16T04:35:44.328Z,25.25
2023-06-16T04:36:44.374Z,25.26
2023-06-16T04:37:44.415Z,25.26
2023-06-16T04:38:44.424Z,25.27
2023-06-16T04:39:44.522Z,25.27
2023-06-16T04:40:44.520Z,25.28
2023-06-16T04:41:44.531Z,25.29
2023-06-16T04:42:44.565Z,25.29
2023-06-16T04:43:44.550Z,25.30
2023-06-16T04:44:44.564Z,25.30
2023-06-16T04:45:44.701Z,25.31
2023-06-16T04:46:44.722Z,25.32
2023-06-16T04:47:44.677Z,25.32
2023-06-16T04:48:44.747Z,25.32
2023-06-16T04:49:44.699Z,25.33
2023-06-16T04:50:44.735Z,25.34
2023-06-16T04:51:44.783Z,25.35
2023-06-16T04:52:44.834Z,25.35
2023-06-16T04:53:45.177Z,25.37
2023-06-16T04:54:44.844Z,25.38
2023-06-16T04:55:44.869Z,25.39
2023-06-16T04:56:44.891Z,25.41
2023-06-16T04:57:44.937Z,25.43
2023-06-16T04:58:44.913Z,25.43
2023-06-16T04:59:44.920Z,25.45
2023-06-16T05:00:44.974Z,25.45
2023-06-16T05:01:44.990Z,25.47
2023-06-16T05:02:45.057Z,25.47
2023-06-16T05:03:45.104Z,25.48
2023-06-16T05:04:45.240Z,25.49
2023-06-16T05:05:45.020Z,25.49
2023-06-16T05:06:45.013Z,25.50
2023-06-16T05:07:45.051Z,25.50
2023-06-16T05:08:45.060Z,25.50
2023-06-16T05:09:45.076Z,25.51
2023-06-16T05:10:45.109Z,25.51
2023-06-16T05:11:45.088Z,25.50
2023-06-16T05:12:45.109Z,25.52
2023-06-16T05:13:45.125Z,25.51
2023-06-16T05:14:45.101Z,25.52
2023-06-16T05:15:45.108Z,25.51
2023-06-16T05:16:45.182Z,25.51
2023-06-16T05:17:45.239Z,25.50
2023-06-16T05:18:45.309Z,25.50
2023-06-16T05:19:45.164Z,25.50
2023-06-16T05:20:45.198Z,25.49
2023-06-16T05:21:45.175Z,25.49
2023-06-16T05:22:45.163Z,25.50
2023-06-16T05:23:45.248Z,25.50
2023-06-16T05:24:45.228Z,25.50
2023-06-16T05:25:45.214Z,25.50
2023-06-16T05:26:45.253Z,25.51
2023-06-16T05:27:45.233Z,25.51
2023-06-16T05:28:45.236Z,25.51
2023-06-16T05:29:45.279Z,25.51
2023-06-16T05:30:45.305Z,25.51
2023-06-16T05:31:45.271Z,25.51
2023-06-16T05:32:45.323Z,25.50
2023-06-16T05:33:45.304Z,25.48
2023-06-16T05:34:45.370Z,25.16
2023-06-16T05:35:45.354Z,24.95
2023-06-16T05:36:45.387Z,24.68
2023-06-16T05:37:45.453Z,24.54
2023-06-16T05:38:45.506Z,24.48
2023-06-16T05:39:45.496Z,24.48
2023-06-16T05:40:45.526Z,24.53
2023-06-16T05:41:45.554Z,24.53
2023-06-16T05:42:45.568Z,24.44
2023-06-16T05:43:45.662Z,24.32
2023-06-16T05:44:45.713Z,24.11
2023-06-16T05:45:46.062Z,24.09
2023-06-16T05:46:45.690Z,24.16
2023-06-16T05:47:45.700Z,24.25
2023-06-16T05:48:45.761Z,24.35
2023-06-16T05:49:45.825Z,24.47
2023-06-16T05:50:45.837Z,24.57
2023-06-16T05:51:45.853Z,24.68
2023-06-16T05:52:45.868Z,24.78
2023-06-16T05:53:45.869Z,24.88
2023-06-16T05:54:45.940Z,24.99
2023-06-16T05:55:45.977Z,25.07
2023-06-16T05:56:46.023Z,25.14
2023-06-16T05:57:46.126Z,25.21
2023-06-16T05:58:46.160Z,25.29
2023-06-16T05:59:46.150Z,25.35
2023-06-16T06:00:46.531Z,25.41
2023-06-16T06:01:46.161Z,25.48
2023-06-16T06:03:46.391Z,25.57
2023-06-16T06:04:46.226Z,25.61
2023-06-16T06:05:46.253Z,25.68
2023-06-16T06:06:46.208Z,25.73
2023-06-16T06:07:46.253Z,25.75
2023-06-16T06:08:46.227Z,25.79
2023-06-16T06:09:46.182Z,25.84
2023-06-16T06:10:46.176Z,25.88
2023-06-16T06:11:46.241Z,25.93
2023-06-16T06:12:46.229Z,25.93
2023-06-16T06:13:46.556Z,25.95
2023-06-16T06:14:46.200Z,25.99
2023-06-16T06:15:46.285Z,26.02
2023-06-16T06:16:46.436Z,26.03
2023-06-16T06:17:46.427Z,26.07
2023-06-16T06:18:46.478Z,26.10
2023-06-16T06:19:46.536Z,26.13
2023-06-16T06:20:46.577Z,26.15
2023-06-16T06:21:46.686Z,26.19
2023-06-16T06:22:48.796Z,26.21
2023-06-16T06:23:46.821Z,26.21
2023-06-16T06:24:47.034Z,26.25
2023-06-16T06:25:46.864Z,26.28
2023-06-16T06:26:46.887Z,26.30
2023-06-16T06:27:46.932Z,26.32
2023-06-16T06:28:46.972Z,26.36
2023-06-16T06:29:47.013Z,26.40
2023-06-16T06:30:47.027Z,26.41
2023-06-16T06:31:47.544Z,26.43
2023-06-16T06:32:47.232Z,26.43
2023-06-16T06:33:47.147Z,26.45
2023-06-16T06:34:47.221Z,26.47
2023-06-16T06:35:47.230Z,26.49
2023-06-16T06:36:47.539Z,26.50
2023-06-16T06:37:47.263Z,26.53
2023-06-16T06:38:47.282Z,26.52
2023-06-16T06:39:47.351Z,26.55
2023-06-16T06:40:47.319Z,26.55
2023-06-16T06:41:47.355Z,26.58
2023-06-16T06:42:47.374Z,26.59
2023-06-16T06:43:47.446Z,26.59
2023-06-16T06:44:47.419Z,26.60
2023-06-16T06:45:47.439Z,26.61
2023-06-16T06:46:47.537Z,26.64
2023-06-16T06:47:47.466Z,26.67
2023-06-16T06:48:47.522Z,26.69
2023-06-16T06:49:47.461Z,26.68
2023-06-16T06:50:47.454Z,26.69
2023-06-16T06:51:47.500Z,26.70
2023-06-16T06:52:47.472Z,26.73
2023-06-16T06:53:47.488Z,26.75
2023-06-16T06:54:47.443Z,26.76
2023-06-16T06:55:47.462Z,26.80
2023-06-16T06:56:47.470Z,26.82
2023-06-16T06:57:47.475Z,26.84
2023-06-16T06:58:47.489Z,26.86
2023-06-16T06:59:47.503Z,26.89
2023-06-16T07:00:47.471Z,26.92
2023-06-16T07:01:47.532Z,26.93
2023-06-16T07:02:47.588Z,26.95
2023-06-16T07:03:47.671Z,26.98
2023-06-16T07:04:47.539Z,26.98
2023-06-16T07:05:47.560Z,26.99
2023-06-16T07:06:47.641Z,27.02
2023-06-16T07:07:47.641Z,27.02
2023-06-16T07:08:47.699Z,27.03
2023-06-16T07:09:47.760Z,27.04
2023-06-16T07:10:47.802Z,27.06
2023-06-16T07:11:47.861Z,27.09
2023-06-16T07:12:47.914Z,27.09
2023-06-16T07:13:47.990Z,27.11
2023-06-16T07:14:48.032Z,27.13
2023-06-16T07:15:48.134Z,27.14
2023-06-16T07:16:48.183Z,27.18
2023-06-16T07:17:48.276Z,27.20
2023-06-16T07:18:48.305Z,27.21
2023-06-16T07:19:48.307Z,27.22
2023-06-16T07:20:48.433Z,27.22
2023-06-16T07:21:48.496Z,27.23
2023-06-16T07:22:48.596Z,27.25
2023-06-16T07:23:48.588Z,27.27
2023-06-16T07:24:48.650Z,27.29
2023-06-16T07:25:48.697Z,27.33
2023-06-16T07:26:48.727Z,27.35
2023-06-16T07:27:49.200Z,27.35
2023-06-16T07:28:49.058Z,27.36
2023-06-16T07:29:48.820Z,27.38
2023-06-16T07:30:48.863Z,27.40
2023-06-16T07:31:48.936Z,27.40
2023-06-16T07:32:49.026Z,27.38
2023-06-16T07:33:49.059Z,27.38
2023-06-16T07:34:49.076Z,27.39
2023-06-16T07:35:49.123Z,27.39
2023-06-16T07:36:49.142Z,27.40
2023-06-16T07:37:49.149Z,27.39
2023-06-16T07:38:49.172Z,27.39
2023-06-16T07:39:49.322Z,27.38
2023-06-16T07:40:49.333Z,27.37
2023-06-16T07:41:49.377Z,27.36
2023-06-16T07:42:49.433Z,27.36
2023-06-16T07:43:49.520Z,27.35
2023-06-16T07:44:49.468Z,27.34
2023-06-16T07:45:49.577Z,27.34
2023-06-16T07:46:49.626Z,27.34
2023-06-16T07:47:49.809Z,27.33
2023-06-16T07:48:49.708Z,27.32
2023-06-16T07:49:49.740Z,27.32
2023-06-16T07:50:49.945Z,27.31
2023-06-16T07:51:49.853Z,27.30
2023-06-16T07:52:49.957Z,27.29
2023-06-16T07:53:49.966Z,27.30
2023-06-16T07:54:50.071Z,27.28
2023-06-16T07:55:50.569Z,27.27
2023-06-16T07:56:50.169Z,27.26
2023-06-16T07:57:50.342Z,27.26
2023-06-16T07:58:50.277Z,27.24
2023-06-16T07:59:50.354Z,27.24
2023-06-16T08:00:50.422Z,27.22
2023-06-16T08:01:50.575Z,27.21
2023-06-16T08:02:50.624Z,27.20
2023-06-16T08:03:50.689Z,27.20
2023-06-16T08:04:50.675Z,27.19
2023-06-16T08:05:50.676Z,27.18
2023-06-16T08:06:50.824Z,27.17
2023-06-16T08:07:50.772Z,27.16
2023-06-16T08:08:50.920Z,27.16
2023-06-16T08:09:50.945Z,27.15
2023-06-16T08:10:50.948Z,27.14
2023-06-16T08:11:50.993Z,27.15
2023-06-16T08:12:51.065Z,27.15
2023-06-16T08:13:51.119Z,27.16
2023-06-16T08:14:51.187Z,27.19
2023-06-16T08:15:51.274Z,27.20
2023-06-16T08:16:51.292Z,27.21
2023-06-16T08:17:51.379Z,27.21
2023-06-16T08:18:51.363Z,27.22
2023-06-16T08:19:51.453Z,27.22
2023-06-16T08:20:51.496Z,27.23
2023-06-16T08:21:51.555Z,27.24
2023-06-16T08:22:51.709Z,27.25
2023-06-16T08:23:51.685Z,27.26
2023-06-16T08:24:52.110Z,27.27
2023-06-16T08:25:52.095Z,27.27
2023-06-16T08:26:51.831Z,27.26
2023-06-16T08:27:51.924Z,27.25
2023-06-16T08:28:51.925Z,27.11
2023-06-16T08:29:51.967Z,26.91
2023-06-16T08:30:52.056Z,26.76
2023-06-16T08:31:52.018Z,26.65
2023-06-16T08:32:52.048Z,26.58
2023-06-16T08:33:52.025Z,26.53
2023-06-16T08:34:52.104Z,26.41
2023-06-16T08:35:52.167Z,26.39
2023-06-16T08:36:52.184Z,26.39
2023-06-16T08:37:52.610Z,26.41
2023-06-16T08:38:52.329Z,26.44
2023-06-16T08:39:52.391Z,26.49
2023-06-16T08:40:52.444Z,26.55
2023-06-16T08:41:52.410Z,26.59
2023-06-16T08:42:52.455Z,26.61
2023-06-16T08:43:52.452Z,26.62
2023-06-16T08:44:52.511Z,26.63
2023-06-16T08:45:52.517Z,26.65
2023-06-16T08:46:54.032Z,26.69
2023-06-16T08:47:52.780Z,26.73
2023-06-16T08:48:52.573Z,26.76
2023-06-16T08:49:52.620Z,26.79
2023-06-16T08:50:52.605Z,26.82
2023-06-16T08:51:53.653Z,26.83
2023-06-16T08:52:52.746Z,26.85
2023-06-16T08:53:53.142Z,26.87
2023-06-16T08:54:52.635Z,26.89
2023-06-16T08:55:52.642Z,26.89
2023-06-16T08:56:52.659Z,26.90
2023-06-16T08:57:53.116Z,26.92
2023-06-16T08:58:52.653Z,26.90
2023-06-16T08:59:53.126Z,26.91
2023-06-16T09:00:52.617Z,26.92
2023-06-16T09:01:53.108Z,26.93
2023-06-16T09:02:52.720Z,26.92
2023-06-16T09:03:52.699Z,26.92
2023-06-16T09:04:52.688Z,26.90
2023-06-16T09:05:52.661Z,26.88
2023-06-16T09:06:53.100Z,26.87
2023-06-16T09:07:52.620Z,26.87
2023-06-16T09:08:52.651Z,26.88
2023-06-16T09:09:52.698Z,26.90
2023-06-16T09:10:52.744Z,26.90
2023-06-16T09:11:52.658Z,26.89
2023-06-16T09:12:52.659Z,26.90
2023-06-16T09:13:53.394Z,26.89
2023-06-16T09:14:52.668Z,26.89
2023-06-16T09:15:52.672Z,26.88
2023-06-16T09:16:52.753Z,26.85
2023-06-16T09:17:52.733Z,26.83
2023-06-16T09:18:52.750Z,26.85
2023-06-16T09:19:52.718Z,26.87
2023-06-16T09:20:52.685Z,26.89
2023-06-16T09:21:52.723Z,26.88
2023-06-16T09:22:52.690Z,26.88
2023-06-16T09:23:52.699Z,26.88
2023-06-16T09:24:52.702Z,26.90
2023-06-16T09:25:52.681Z,26.91
2023-06-16T09:26:52.719Z,26.89
2023-06-16T09:27:52.711Z,26.88
2023-06-16T09:28:53.143Z,26.89
2023-06-16T09:29:52.681Z,26.90
2023-06-16T09:31:06.882Z,26.91
2023-06-16T09:31:53.669Z,26.91
2023-06-16T09:32:52.711Z,26.87
2023-06-16T09:33:52.663Z,26.87
2023-06-16T09:34:53.122Z,26.89
2023-06-16T09:35:52.686Z,26.90
2023-06-16T09:36:52.709Z,26.91
2023-06-16T09:37:52.694Z,26.93
2023-06-16T09:38:52.622Z,26.93
2023-06-16T09:39:52.650Z,26.93
2023-06-16T09:40:52.603Z,26.94
2023-06-16T09:41:53.615Z,26.95
2023-06-16T09:42:52.645Z,26.96
2023-06-16T09:43:52.594Z,26.96
2023-06-16T09:44:52.572Z,26.97
2023-06-16T09:45:52.615Z,26.98
2023-06-16T09:46:53.137Z,27.00
2023-06-16T09:47:52.657Z,27.00
2023-06-16T09:48:52.565Z,27.00
2023-06-16T09:49:52.562Z,27.01
2023-06-16T09:50:52.581Z,27.02
2023-06-16T09:51:52.619Z,27.02
2023-06-16T09:52:52.648Z,27.03
2023-06-16T09:53:52.738Z,27.03
2023-06-16T09:54:52.733Z,27.04
2023-06-16T09:55:52.811Z,27.04
2023-06-16T09:56:52.893Z,27.05
2023-06-16T09:57:52.926Z,27.05
2023-06-16T09:58:52.963Z,27.05
2023-06-16T09:59:53.035Z,27.06
2023-06-16T10:00:53.055Z,27.07
2023-06-16T10:01:53.071Z,27.07
2023-06-16T10:02:53.277Z,27.08
2023-06-16T10:03:53.259Z,27.09
2023-06-16T10:04:53.223Z,27.09
2023-06-16T10:05:53.281Z,27.11
2023-06-16T10:06:53.332Z,27.12
2023-06-16T10:07:53.368Z,27.14
2023-06-16T10:08:53.457Z,27.16
2023-06-16T10:10:53.540Z,27.18
2023-06-16T10:11:53.619Z,27.22
2023-06-16T10:12:53.631Z,27.22
2023-06-16T10:13:53.492Z,27.24
2023-06-16T10:14:53.449Z,27.25
2023-06-16T10:15:53.478Z,27.26
2023-06-16T10:16:53.477Z,27.25
2023-06-16T10:17:53.585Z,27.25
2023-06-16T10:18:53.503Z,27.24
2023-06-16T10:19:53.416Z,27.24
2023-06-16T10:20:53.422Z,27.24
2023-06-16T10:21:53.430Z,27.23
2023-06-16T10:22:53.413Z,27.22
2023-06-16T10:23:53.492Z,27.22
2023-06-16T10:24:53.408Z,27.22
2023-06-16T10:25:53.401Z,27.21
2023-06-16T10:26:53.400Z,27.21
2023-06-16T10:27:53.638Z,27.21
2023-06-16T10:28:53.401Z,27.20
2023-06-16T10:29:53.387Z,27.20
2023-06-16T10:30:53.413Z,27.18
2023-06-16T10:31:53.339Z,27.16
2023-06-16T10:32:53.438Z,27.15
2023-06-16T10:33:53.324Z,27.15
2023-06-16T10:34:53.364Z,27.13
2023-06-16T10:36:00.532Z,27.13
2023-06-16T10:36:54.325Z,27.11
2023-06-16T10:37:53.304Z,27.11
2023-06-16T10:38:53.408Z,27.09
2023-06-16T10:39:53.630Z,27.09
2023-06-16T10:40:55.440Z,27.08
2023-06-16T10:41:53.325Z,27.08
2023-06-16T10:42:53.314Z,27.09
2023-06-16T10:43:53.278Z,27.08
2023-06-16T10:44:53.326Z,27.09
2023-06-16T10:45:53.337Z,27.10
2023-06-16T10:46:53.360Z,27.11
2023-06-16T10:47:53.407Z,27.13
2023-06-16T10:48:53.217Z,27.13
2023-06-16T10:49:53.240Z,27.14
2023-06-16T10:50:53.239Z,27.14
2023-06-16T10:51:53.245Z,27.15
2023-06-16T10:52:53.245Z,27.15
2023-06-16T10:53:53.231Z,27.15
2023-06-16T10:54:53.222Z,27.14
2023-06-16T10:55:53.227Z,27.13
2023-06-16T10:57:06.833Z,27.14
2023-06-16T10:57:54.672Z,27.15
2023-06-16T10:58:53.212Z,27.16
2023-06-16T10:59:53.152Z,27.15
2023-06-16T11:00:53.154Z,27.14
2023-06-16T11:01:53.238Z,27.12
2023-06-16T11:02:53.356Z,27.13
2023-06-16T11:03:55.678Z,27.13
2023-06-16T11:04:53.114Z,27.12
2023-06-16T11:05:53.120Z,27.10
2023-06-16T11:07:03.243Z,27.09
2023-06-16T11:07:54.269Z,27.06
2023-06-16T11:08:53.106Z,27.05
2023-06-16T11:09:53.120Z,27.05
2023-06-16T11:10:53.075Z,27.05
2023-06-16T11:11:53.093Z,27.04
2023-06-16T11:12:53.159Z,27.05
2023-06-16T11:13:53.086Z,27.07
2023-06-16T11:14:53.194Z,27.09
2023-06-16T11:15:53.110Z,27.10
2023-06-16T11:16:53.094Z,27.09
2023-06-16T11:17:53.164Z,27.07
2023-06-16T11:18:53.117Z,27.02
2023-06-16T11:19:53.223Z,26.94
2023-06-16T11:20:53.176Z,26.87
2023-06-16T11:21:53.180Z,26.81
2023-06-16T11:22:53.104Z,26.79
2023-06-16T11:23:53.155Z,26.78
2023-06-16T11:24:53.120Z,26.76
2023-06-16T11:25:53.142Z,26.72
2023-06-16T11:26:53.174Z,26.69
2023-06-16T11:27:53.209Z,26.66
2023-06-16T11:28:53.227Z,26.64
2023-06-16T11:29:53.294Z,26.65
2023-06-16T11:30:53.361Z,26.67
2023-06-16T11:31:53.343Z,26.63
2023-06-16T11:32:53.383Z,26.59
2023-06-16T11:33:53.349Z,26.56
2023-06-16T11:34:53.396Z,26.55
2023-06-16T11:35:53.472Z,26.53
2023-06-16T11:36:53.446Z,26.56
2023-06-16T11:37:53.517Z,26.53
2023-06-16T11:38:53.567Z,26.52
2023-06-16T11:39:53.575Z,26.50
2023-06-16T11:41:06.676Z,26.46
2023-06-16T11:42:01.793Z,26.42
2023-06-16T11:42:54.642Z,26.41
2023-06-16T11:43:53.598Z,26.41
2023-06-16T11:44:53.629Z,26.40
2023-06-16T11:45:53.598Z,26.40
2023-06-16T11:46:53.604Z,26.41
2023-06-16T11:47:53.601Z,26.42
2023-06-16T11:48:53.572Z,26.43
2023-06-16T11:49:53.559Z,26.45
2023-06-16T11:50:53.667Z,26.47
2023-06-16T11:51:53.551Z,26.48
2023-06-16T11:52:53.555Z,26.48
2023-06-16T11:53:53.600Z,26.47
2023-06-16T11:54:53.530Z,26.46
2023-06-16T11:55:53.508Z,26.45
2023-06-16T11:56:53.519Z,26.44
2023-06-16T11:57:53.511Z,26.43
2023-06-16T11:58:53.481Z,26.43
2023-06-16T11:59:53.490Z,26.42
2023-06-16T12:00:53.510Z,26.36
2023-06-16T12:01:53.515Z,26.29
2023-06-16T12:02:53.531Z,26.30
2023-06-16T12:04:05.039Z,26.31
2023-06-16T12:04:54.482Z,26.34
2023-06-16T12:05:53.549Z,26.35
2023-06-16T12:06:53.457Z,26.36
2023-06-16T12:07:53.448Z,26.36
2023-06-16T12:08:53.433Z,26.37
2023-06-16T12:09:53.468Z,26.38
2023-06-16T12:10:53.439Z,26.37
2023-06-16T12:11:53.423Z,26.38
2023-06-16T12:12:53.438Z,26.40
2023-06-16T12:13:53.386Z,26.40
2023-06-16T12:14:53.449Z,26.41
2023-06-16T12:15:53.492Z,26.39
2023-06-16T12:16:53.507Z,26.37
2023-06-16T12:17:53.619Z,26.37
2023-06-16T12:18:53.601Z,26.33
2023-06-16T12:19:53.656Z,26.32
2023-06-16T12:20:53.709Z,26.32
2023-06-16T12:21:53.907Z,26.33
2023-06-16T12:22:53.835Z,26.35
2023-06-16T12:23:53.982Z,26.34
2023-06-16T12:24:53.971Z,26.36
2023-06-16T12:25:54.062Z,26.33
2023-06-16T12:26:54.312Z,26.32
2023-06-16T12:27:54.140Z,26.30
2023-06-16T12:28:54.384Z,26.28
2023-06-16T12:29:54.305Z,26.26
2023-06-16T12:30:54.365Z,26.26
2023-06-16T12:31:54.363Z,26.27
2023-06-16T12:32:55.757Z,26.27
2023-06-16T12:33:54.446Z,26.28
2023-06-16T12:34:54.471Z,26.30
2023-06-16T12:35:54.435Z,26.30
2023-06-16T12:36:54.424Z,26.30
2023-06-16T12:37:54.396Z,26.31
2023-06-16T12:38:54.388Z,26.31
2023-06-16T12:39:54.423Z,26.32
2023-06-16T12:40:54.399Z,26.33
2023-06-16T12:41:54.462Z,26.36
2023-06-16T12:42:54.413Z,26.40
2023-06-16T12:43:54.705Z,26.43
2023-06-16T12:44:54.375Z,26.46
2023-06-16T12:45:54.404Z,26.46
2023-06-16T12:46:54.338Z,26.49
2023-06-16T12:47:54.467Z,26.50
2023-06-16T12:48:54.368Z,26.53
2023-06-16T12:49:54.332Z,26.57
2023-06-16T12:50:54.350Z,26.61
2023-06-16T12:51:54.372Z,26.64
2023-06-16T12:52:54.349Z,26.67
2023-06-16T12:53:54.316Z,26.71
2023-06-16T12:54:54.281Z,26.72